Time;durP1;ratioP1;P1;durP2;ratioP2;P2;SDS_P1;SDS_P2;PMS_P1;PMS_P2;Temp;Humidity;BMP_temperature;BMP_pressure;BME280_temperature;BME280_humidity;BME280_pressure;Samples;Min_cycle;Max_cycle;Signal;HPM_P1;HPM_P2
2023/05/24 00:31:55;;;;;;;11.43;8.63;;;16.80;84.40;;;;;;5998687;23;20632;-86
2023/05/24 01:02:26;;;;;;;8.97;8.07;;;16.70;86.20;;;;;;5731644;24;20647;-85
2023/05/24 02:08:19;;;;;;;11.57;8.20;;;15.60;89.10;;;;;;5887146;23;20561;-82
2023/05/24 02:33:56;;;;;;;8.83;7.83;;;16.00;86.00;;;;;;5900393;23;20640;-84
2023/05/24 03:04:23;;;;;;;9.17;8.13;;;15.60;89.20;;;;;;5755563;24;20281;-83
2023/05/24 03:50:02;;;;;;;8.40;7.60;;;16.30;81.30;;;;;;5684923;24;20198;-85
2023/05/24 04:15:16;;;;;;;8.80;7.50;;;16.60;81.90;;;;;;5946856;23;20559;-85
2023/05/24 04:55:24;;;;;;;8.67;7.43;;;16.70;82.40;;;;;;5769502;24;20576;-84
2023/05/24 05:20:46;;;;;;;10.43;6.93;;;16.90;83.00;;;;;;5771498;24;20278;-85
2023/05/24 05:41:23;;;;;;;8.90;7.07;;;17.90;81.80;;;;;;5863151;24;20180;-89
2023/05/24 06:11:45;;;;;;;7.40;6.70;;;19.20;77.20;;;;;;6014354;23;20296;-89
2023/05/24 06:37:24;;;;;;;11.47;6.67;;;20.30;74.90;;;;;;6004479;23;20260;-89
2023/05/24 06:57:43;;;;;;;7.57;6.57;;;21.00;70.60;;;;;;5763767;24;20182;-82
2023/05/24 08:13:44;;;;;;;7.13;6.20;;;23.20;55.00;;;;;;6176496;22;20590;-84
2023/05/24 08:48:48;;;;;;;8.25;5.68;;;23.50;56.30;;;;;;5840130;23;21059;-84
2023/05/24 09:04:17;;;;;;;10.10;5.72;;;25.00;53.10;;;;;;5794917;24;20196;-83
2023/05/24 09:29:55;;;;;;;8.25;5.53;;;25.10;52.10;;;;;;5812354;24;20299;-85
2023/05/24 10:40:37;;;;;;;9.13;6.78;;;26.40;50.70;;;;;;5855730;24;20731;-87
2023/05/24 11:06:19;;;;;;;13.75;7.28;;;26.70;50.60;;;;;;5929245;24;20220;-86
2023/05/24 11:36:33;;;;;;;9.90;6.90;;;26.80;50.40;;;;;;5865083;24;20642;-81
2023/05/24 12:07:12;;;;;;;9.80;7.07;;;27.50;49.90;;;;;;5908361;23;20416;-83
2023/05/24 12:42:37;;;;;;;9.35;6.32;;;27.70;49.70;;;;;;5998065;23;20253;-89
2023/05/24 13:18:04;;;;;;;9.77;5.45;;;25.50;49.40;;;;;;6118075;23;20252;-87
2023/05/24 13:53:31;;;;;;;6.78;5.40;;;23.70;49.50;;;;;;6097524;23;20286;-86
2023/05/24 14:18:50;;;;;;;8.15;5.90;;;24.80;50.50;;;;;;6169162;23;20169;-86
2023/05/24 14:54:31;;;;;;;7.88;5.05;;;23.70;48.90;;;;;;6178350;23;20203;-82
2023/05/24 15:24:19;;;;;;;8.13;5.78;;;24.70;50.00;;;;;;6085379;23;20232;-87
2023/05/24 15:50:08;;;;;;;6.53;5.80;;;24.40;49.60;;;;;;5985270;24;20209;-84
2023/05/24 16:35:20;;;;;;;15.23;13.82;;;22.40;84.50;;;;;;5737310;24;20511;-86
2023/05/24 16:56:10;;;;;;;15.32;13.15;;;21.70;86.00;;;;;;5878813;24;20411;-85
2023/05/24 17:21:30;;;;;;;14.80;13.40;;;20.90;87.00;;;;;;5865639;24;21301;-85
2023/05/24 17:41:36;;;;;;;15.37;13.90;;;20.40;88.70;;;;;;5791528;24;20290;-85
2023/05/24 18:17:27;;;;;;;16.90;15.27;;;19.20;91.00;;;;;;6084378;23;20245;-86
2023/05/24 18:47:31;;;;;;;16.53;14.70;;;18.30;92.60;;;;;;5901528;23;20590;-84
2023/05/24 19:08:00;;;;;;;18.67;15.87;;;17.80;93.40;;;;;;5860927;24;20637;-85
2023/05/24 19:28:25;;;;;;;16.50;14.67;;;17.50;95.40;;;;;;5767439;24;20204;-84
2023/05/24 19:53:26;;;;;;;19.10;16.57;;;16.90;99.90;;;;;;5770636;24;20546;-86
2023/05/24 20:24:02;;;;;;;19.87;17.77;;;16.70;99.90;;;;;;5898074;24;20156;-84
2023/05/24 20:49:18;;;;;;;19.27;16.83;;;16.30;99.90;;;;;;5908963;23;20215;-83
2023/05/24 21:19:56;;;;;;;20.67;17.63;;;16.10;99.90;;;;;;5958649;23;20188;-84
2023/05/24 21:44:59;;;;;;;19.90;17.57;;;15.90;99.90;;;;;;5904133;23;20589;-85
2023/05/24 22:05:19;;;;;;;24.83;18.93;;;15.70;99.90;;;;;;5835738;24;20662;-84
2023/05/24 23:16:28;;;;;;;29.37;21.47;;;14.30;99.90;;;;;;5888500;23;20237;-86
2023/05/24 23:41:17;;;;;;;29.17;21.67;;;13.90;99.90;;;;;;5987437;23;20581;-85
